Time;durP1;ratioP1;P1;durP2;ratioP2;P2;SDS_P1;SDS_P2;PMS_P1;PMS_P2;Temp;Humidity;BMP_temperature;BMP_pressure;BME280_temperature;BME280_humidity;BME280_pressure;Samples;Min_cycle;Max_cycle;Signal;HPM_P1;HPM_P2
2021/06/28 00:00:40;;;;;;;6.63;5.05;;;;;;;21.94;90.75;100997.84;4955639;28;20093;-69
2021/06/28 00:03:06;;;;;;;6.72;4.97;;;;;;;21.84;91.56;101001.59;4969552;28;20051;-69
2021/06/28 00:05:32;;;;;;;7.63;5.82;;;;;;;21.77;91.76;100996.22;4973125;28;20031;-69
2021/06/28 00:07:57;;;;;;;6.05;5.13;;;;;;;21.79;91.74;100986.38;4971704;28;20026;-69
2021/06/28 00:10:29;;;;;;;9.13;5.70;;;;;;;21.80;91.20;100992.63;4967619;28;20118;-69
2021/06/28 00:12:57;;;;;;;7.45;5.35;;;;;;;21.74;91.49;100991.59;4979297;28;20026;-69
2021/06/28 00:15:27;;;;;;;6.03;4.88;;;;;;;21.70;91.31;101004.59;4978495;28;20047;-69
2021/06/28 00:17:53;;;;;;;9.23;5.70;;;;;;;21.70;91.57;101010.09;4971174;28;20039;-69
2021/06/28 00:20:19;;;;;;;8.75;5.35;;;;;;;21.72;91.43;101002.22;4970698;28;20129;-69
2021/06/28 00:22:46;;;;;;;6.70;4.90;;;;;;;21.65;91.91;100997.63;4964902;28;20035;-69
2021/06/28 00:25:15;;;;;;;7.97;5.20;;;;;;;21.52;92.51;101002.19;4967952;28;20525;-69
2021/06/28 00:27:42;;;;;;;6.72;5.13;;;;;;;21.50;92.63;100999.84;4971915;28;20089;-69
2021/06/28 00:30:11;;;;;;;7.80;5.60;;;;;;;21.46;92.43;101003.88;4965056;28;20031;-69
2021/06/28 00:32:36;;;;;;;7.57;5.32;;;;;;;21.45;92.74;101005.84;4970731;28;20486;-69
2021/06/28 00:35:03;;;;;;;12.05;7.20;;;;;;;21.41;93.14;101007.09;4969555;28;20035;-69
2021/06/28 00:37:29;;;;;;;7.82;6.07;;;;;;;21.38;93.14;101005.19;4970989;28;20050;-69
2021/06/28 00:39:54;;;;;;;9.80;6.50;;;;;;;21.33;93.34;101002.94;4968255;28;20505;-69
2021/06/28 00:42:22;;;;;;;8.77;5.90;;;;;;;21.27;93.23;100999.91;4971219;28;20053;-69
2021/06/28 00:44:49;;;;;;;9.35;6.43;;;;;;;21.25;93.51;100999.53;4970813;28;20035;-69
2021/06/28 00:47:14;;;;;;;9.32;6.30;;;;;;;21.28;93.54;101000.69;4970853;28;20113;-69
2021/06/28 00:49:40;;;;;;;13.10;6.57;;;;;;;21.28;93.10;100995.97;4967736;28;20039;-70
2021/06/28 00:52:05;;;;;;;7.68;5.90;;;;;;;21.26;93.34;101000.31;4967321;28;20057;-70
2021/06/28 00:54:31;;;;;;;7.22;6.10;;;;;;;21.27;93.34;100999.91;4956142;28;20097;-69
2021/06/28 00:56:57;;;;;;;7.07;5.57;;;;;;;21.23;93.76;101001.16;4979926;28;20039;-70
2021/06/28 00:59:24;;;;;;;8.48;5.72;;;;;;;21.19;93.81;100998.50;4968232;28;20043;-69
2021/06/28 01:01:49;;;;;;;8.93;6.50;;;;;;;21.19;93.55;101003.19;4940571;28;20085;-70
2021/06/28 01:04:15;;;;;;;7.07;5.72;;;;;;;21.15;93.69;100999.75;4972901;28;20039;-69
2021/06/28 01:06:41;;;;;;;9.82;5.90;;;;;;;21.21;93.01;101007.06;4971607;28;20066;-70
2021/06/28 01:09:06;;;;;;;7.45;5.70;;;;;;;21.16;93.54;101013.00;4970741;28;20125;-70
2021/06/28 01:11:32;;;;;;;9.88;5.80;;;;;;;21.03;94.34;101001.13;4967981;28;20113;-69
2021/06/28 01:13:59;;;;;;;6.85;5.72;;;;;;;20.94;94.62;101003.59;4970075;28;20505;-70
2021/06/28 01:16:24;;;;;;;11.63;6.22;;;;;;;20.90;94.89;101002.88;4970143;28;20037;-70
2021/06/28 01:18:50;;;;;;;7.65;5.65;;;;;;;20.81;95.42;101007.34;4968154;28;20031;-70
2021/06/28 01:21:16;;;;;;;7.75;5.97;;;;;;;20.92;94.77;101008.72;4970642;28;20404;-70
2021/06/28 01:23:42;;;;;;;8.45;6.45;;;;;;;20.90;94.76;101002.09;4967694;28;20033;-70
2021/06/28 01:26:10;;;;;;;7.90;6.22;;;;;;;20.81;94.99;101007.34;4973065;28;20034;-70
2021/06/28 01:28:37;;;;;;;7.93;6.10;;;;;;;20.73;95.39;101009.38;4969665;28;20030;-70
2021/06/28 01:31:06;;;;;;;7.97;6.20;;;;;;;20.73;95.32;101003.91;4953075;28;20030;-70
2021/06/28 01:33:31;;;;;;;9.57;6.28;;;;;;;20.75;95.00;101000.78;4962160;23;20051;-73
2021/06/28 01:35:57;;;;;;;10.80;6.03;;;;;;;20.75;94.69;100998.78;4948894;28;20039;-73
2021/06/28 01:38:23;;;;;;;7.32;5.97;;;;;;;20.79;94.84;100998.75;4952068;28;20034;-73
2021/06/28 01:40:49;;;;;;;9.35;6.22;;;;;;;20.77;95.08;101004.63;4934316;28;20032;-73
2021/06/28 01:43:16;;;;;;;8.15;6.43;;;;;;;20.79;94.91;101001.50;4945938;28;20035;-73
2021/06/28 01:45:41;;;;;;;11.10;6.70;;;;;;;20.73;95.36;101003.16;4948027;29;20440;-73
2021/06/28 01:48:07;;;;;;;9.68;6.70;;;;;;;20.70;95.39;101002.00;4948052;28;20043;-73
2021/06/28 01:50:35;;;;;;;8.45;6.35;;;;;;;20.82;94.79;101006.13;4943575;29;20474;-73
2021/06/28 01:53:02;;;;;;;13.82;7.00;;;;;;;20.80;94.85;100998.34;4938499;29;20039;-73
2021/06/28 01:55:28;;;;;;;11.25;6.82;;;;;;;20.78;95.10;100994.47;4943581;28;20694;-74
2021/06/28 01:57:56;;;;;;;11.10;7.22;;;;;;;20.77;95.24;100999.16;4951159;29;20101;-74
2021/06/28 02:00:26;;;;;;;13.95;7.40;;;;;;;20.74;95.11;100993.75;4948768;28;20047;-74
2021/06/28 02:03:00;;;;;;;10.00;7.68;;;;;;;20.68;95.56;100996.19;4951476;28;20031;-74
2021/06/28 02:05:30;;;;;;;12.23;8.18;;;;;;;20.64;95.72;100996.25;4943235;28;20114;-74
2021/06/28 02:07:55;;;;;;;13.18;7.78;;;;;;;20.61;95.89;100996.28;4931847;29;20073;-74
2021/06/28 02:10:21;;;;;;;10.60;7.95;;;;;;;20.56;96.13;100997.53;4952952;28;20066;-74
2021/06/28 02:12:46;;;;;;;9.25;7.20;;;;;;;20.47;96.16;100985.56;4955353;28;20515;-74
2021/06/28 02:15:17;;;;;;;10.68;7.63;;;;;;;20.43;96.46;100987.56;4950071;28;20027;-74
2021/06/28 02:17:42;;;;;;;11.02;7.38;;;;;;;20.46;96.11;100986.75;4947741;29;20154;-74
2021/06/28 02:20:09;;;;;;;11.52;8.18;;;;;;;20.46;95.87;100984.00;4952180;28;20125;-74
2021/06/28 02:22:37;;;;;;;12.35;8.50;;;;;;;20.33;96.60;100977.53;4948101;28;20837;-74
2021/06/28 02:25:05;;;;;;;13.63;8.00;;;;;;;20.35;96.52;100975.16;4951298;28;20039;-74
2021/06/28 02:27:30;;;;;;;10.65;8.13;;;;;;;20.42;95.69;100977.81;4952714;28;20126;-74
2021/06/28 02:29:56;;;;;;;10.52;7.70;;;;;;;20.31;96.33;100977.97;4953372;28;20170;-74
2021/06/28 02:32:21;;;;;;;12.25;8.75;;;;;;;20.31;96.45;100971.72;4936730;28;20113;-74
2021/06/28 02:34:47;;;;;;;14.70;7.88;;;;;;;20.19;97.35;100975.78;4952165;28;20039;-74
2021/06/28 02:37:12;;;;;;;11.43;8.10;;;;;;;20.07;97.54;100975.53;4932184;29;20031;-74
2021/06/28 02:39:37;;;;;;;11.10;8.07;;;;;;;20.14;97.43;100972.69;4954160;28;20097;-74
2021/06/28 02:42:03;;;;;;;15.20;8.40;;;;;;;20.15;97.31;100961.34;4954165;28;20490;-74
2021/06/28 02:44:29;;;;;;;11.40;8.43;;;;;;;20.20;97.05;100965.63;4935573;29;20062;-74
2021/06/28 02:46:54;;;;;;;10.82;7.93;;;;;;;20.10;97.28;100970.03;4932589;29;20035;-74
2021/06/28 02:49:20;;;;;;;10.95;8.45;;;;;;;20.10;97.33;100961.03;4952253;28;20043;-73
2021/06/28 02:51:45;;;;;;;12.90;8.55;;;;;;;20.13;96.88;100960.97;4936776;29;20453;-73
2021/06/28 02:54:11;;;;;;;12.23;7.88;;;;;;;20.05;97.15;100962.28;4933035;28;20043;-72
2021/06/28 02:56:36;;;;;;;13.90;8.45;;;;;;;20.05;97.51;100956.81;4953292;29;20432;-73
2021/06/28 02:59:02;;;;;;;10.75;8.55;;;;;;;20.06;97.38;100968.50;4953071;29;20043;-73
2021/06/28 03:01:28;;;;;;;15.00;8.73;;;;;;;20.06;97.28;100963.03;4950939;28;20046;-73
2021/06/28 03:03:54;;;;;;;15.88;8.45;;;;;;;20.03;97.60;100963.88;4950778;28;20449;-73
2021/06/28 03:06:20;;;;;;;11.98;8.43;;;;;;;20.01;97.61;100958.03;4952769;28;20039;-73
2021/06/28 03:08:46;;;;;;;13.55;8.20;;;;;;;19.96;97.53;100962.00;4937023;28;20461;-73
2021/06/28 03:11:19;;;;;;;11.20;7.85;;;;;;;20.02;97.41;100968.56;4928693;29;20123;-73
2021/06/28 03:13:45;;;;;;;12.00;8.07;;;;;;;20.01;97.55;100975.22;4939388;29;20414;-73
2021/06/28 03:16:11;;;;;;;11.60;8.23;;;;;;;20.01;97.75;100972.50;4948748;28;20028;-73
2021/06/28 03:18:36;;;;;;;10.80;7.78;;;;;;;20.01;97.92;100980.69;4950349;29;20034;-73
2021/06/28 03:21:03;;;;;;;11.52;8.10;;;;;;;19.98;98.09;100969.78;4937122;28;20051;-73
2021/06/28 03:23:29;;;;;;;11.50;8.05;;;;;;;19.93;98.23;100971.03;4928256;29;20059;-73
2021/06/28 03:25:54;;;;;;;14.10;7.72;;;;;;;20.05;97.85;100969.72;4951933;28;20069;-73
2021/06/28 03:28:20;;;;;;;10.77;7.78;;;;;;;20.05;98.04;100977.91;4933500;29;20087;-73
2021/06/28 03:30:46;;;;;;;11.15;7.43;;;;;;;20.08;98.10;100980.59;4952803;28;20027;-73
2021/06/28 03:33:11;;;;;;;9.82;7.38;;;;;;;20.03;98.12;100972.88;4952967;28;20402;-73
2021/06/28 03:35:37;;;;;;;11.48;8.20;;;;;;;20.09;97.94;100975.91;4952511;28;20050;-73
2021/06/28 03:38:03;;;;;;;12.15;8.00;;;;;;;20.03;98.58;100974.81;4948222;28;20041;-74
2021/06/28 03:40:32;;;;;;;10.60;7.00;;;;;;;20.03;99.10;100981.06;4953342;28;20043;-74
2021/06/28 03:43:04;;;;;;;10.80;7.43;;;;;;;20.05;98.80;100975.19;4951630;28;20035;-74
2021/06/28 03:45:30;;;;;;;10.82;7.32;;;;;;;20.05;99.10;100981.44;4946714;28;20075;-74
2021/06/28 03:47:55;;;;;;;10.98;7.90;;;;;;;20.14;98.85;100978.19;4951940;28;20066;-74
2021/06/28 03:50:21;;;;;;;10.95;7.88;;;;;;;20.18;98.26;100995.31;4950329;28;20043;-73
2021/06/28 03:52:47;;;;;;;11.27;7.70;;;;;;;20.24;98.22;100985.50;4949952;28;20035;-73
2021/06/28 03:55:12;;;;;;;8.70;6.80;;;;;;;20.30;98.04;100979.16;4948926;28;20035;-73
2021/06/28 03:57:38;;;;;;;13.13;7.53;;;;;;;20.31;96.56;100977.97;4951165;28;20046;-73
2021/06/28 04:00:16;;;;;;;9.95;7.78;;;;;;;20.32;97.08;100984.22;4934765;29;20081;-73
2021/06/28 04:02:43;;;;;;;13.32;7.53;;;;;;;20.32;97.59;100990.47;4921270;28;20042;-73
2021/06/28 04:05:16;;;;;;;11.52;7.40;;;;;;;20.37;97.08;100991.94;4946891;28;20045;-73
2021/06/28 04:07:42;;;;;;;14.63;7.47;;;;;;;20.42;97.33;100983.28;4934810;29;20037;-73
2021/06/28 04:10:08;;;;;;;12.95;7.18;;;;;;;20.46;97.34;100987.50;4951131;28;20031;-73
2021/06/28 04:12:35;;;;;;;9.85;7.15;;;;;;;20.49;97.63;100991.38;4949932;28;20043;-73
2021/06/28 04:15:02;;;;;;;11.63;7.93;;;;;;;20.54;97.66;100986.22;4949381;28;20035;-73
2021/06/28 04:17:27;;;;;;;8.93;6.93;;;;;;;20.59;97.39;100984.97;4950276;28;20709;-73
2021/06/28 04:19:53;;;;;;;10.70;7.78;;;;;;;20.64;97.48;100979.03;4950115;28;20035;-72
2021/06/28 04:22:19;;;;;;;9.48;7.13;;;;;;;20.65;98.27;100980.59;4951091;28;20174;-73
2021/06/28 04:24:44;;;;;;;9.70;7.05;;;;;;;20.72;97.44;100979.69;4951670;28;20189;-73
2021/06/28 04:27:10;;;;;;;12.50;6.55;;;;;;;20.72;96.22;100974.22;4942410;28;20494;-73
2021/06/28 04:29:36;;;;;;;11.18;6.97;;;;;;;20.72;96.54;100974.22;4933071;29;20038;-73
2021/06/28 04:32:03;;;;;;;9.32;6.82;;;;;;;20.87;96.03;100975.53;4942074;28;20050;-73
2021/06/28 04:34:29;;;;;;;9.23;6.80;;;;;;;20.88;96.04;100982.56;4937762;28;20066;-73
2021/06/28 04:36:54;;;;;;;12.40;7.03;;;;;;;20.86;95.99;100974.00;4939556;29;20032;-73
2021/06/28 04:39:20;;;;;;;8.77;6.55;;;;;;;20.93;96.25;100969.16;4934661;28;20039;-74
2021/06/28 04:41:45;;;;;;;9.90;6.72;;;;;;;20.95;95.44;100969.53;4928868;29;20521;-73
2021/06/28 04:44:11;;;;;;;10.73;6.45;;;;;;;20.94;95.95;100970.72;4946307;28;20043;-74
2021/06/28 04:46:36;;;;;;;9.68;7.07;;;;;;;20.96;96.58;100962.09;4948143;28;20027;-73
2021/06/28 04:49:02;;;;;;;10.75;7.25;;;;;;;20.99;96.55;100962.03;4951025;28;20032;-73
2021/06/28 04:51:27;;;;;;;10.48;7.00;;;;;;;21.08;95.23;100958.78;4949684;28;20042;-73
2021/06/28 04:53:53;;;;;;;9.30;6.90;;;;;;;21.09;96.02;100952.88;4924369;29;20054;-73
2021/06/28 04:56:18;;;;;;;9.32;6.95;;;;;;;21.11;95.88;100953.25;4923870;29;20052;-73
2021/06/28 04:58:44;;;;;;;10.63;6.85;;;;;;;21.16;95.74;100963.69;4926831;28;20031;-74
2021/06/28 05:01:10;;;;;;;11.10;7.53;;;;;;;21.08;96.28;100962.28;4916528;29;20039;-73
2021/06/28 05:03:35;;;;;;;12.23;7.13;;;;;;;21.25;95.35;100966.66;4941285;28;20113;-73
2021/06/28 05:06:00;;;;;;;9.52;6.88;;;;;;;21.24;95.31;100962.38;4932314;28;20019;-73
2021/06/28 05:08:26;;;;;;;8.48;7.03;;;;;;;21.41;94.31;100961.28;4923125;29;20045;-73
2021/06/28 05:10:51;;;;;;;9.07;7.15;;;;;;;21.37;94.88;100968.78;4935618;28;20114;-74
2021/06/28 05:13:17;;;;;;;9.57;6.80;;;;;;;21.40;95.45;100962.47;4934007;29;20042;-73
2021/06/28 05:15:42;;;;;;;9.55;6.93;;;;;;;21.63;94.07;100971.81;4941560;28;20031;-74
2021/06/28 05:18:08;;;;;;;10.65;6.22;;;;;;;22.33;91.94;100962.91;4944734;29;20034;-74
2021/06/28 05:20:33;;;;;;;12.90;6.95;;;;;;;23.35;87.17;100967.06;4949557;29;20600;-74
2021/06/28 05:22:59;;;;;;;9.88;6.25;;;;;;;24.48;81.83;100965.31;4948220;28;20057;-74
2021/06/28 05:25:24;;;;;;;9.40;5.68;;;;;;;25.35;76.80;100968.31;4931154;29;20409;-74
2021/06/28 05:27:50;;;;;;;8.30;5.72;;;;;;;26.06;73.53;100963.75;4951619;29;20027;-74
2021/06/28 05:30:16;;;;;;;8.68;6.20;;;;;;;26.72;70.61;100965.84;4943325;28;20075;-74
2021/06/28 05:32:42;;;;;;;9.95;5.57;;;;;;;27.04;68.59;100964.53;4950435;28;20035;-74
2021/06/28 05:35:09;;;;;;;7.55;5.70;;;;;;;27.43;64.69;100963.63;4947904;28;20046;-74
2021/06/28 05:37:35;;;;;;;6.82;5.93;;;;;;;27.91;64.02;100959.06;4949331;28;20042;-74
2021/06/28 05:40:01;;;;;;;6.03;5.40;;;;;;;28.16;63.28;100959.47;4950649;28;20122;-74
2021/06/28 05:42:27;;;;;;;6.05;5.03;;;;;;;28.64;62.57;100965.13;4950061;28;20038;-74
2021/06/28 05:44:52;;;;;;;8.20;5.72;;;;;;;28.58;61.03;100965.00;4934230;28;20460;-74
2021/06/28 05:47:21;;;;;;;7.18;4.88;;;;;;;29.05;58.55;100961.44;4953200;28;20037;-74
2021/06/28 05:49:48;;;;;;;7.10;5.53;;;;;;;29.32;57.49;100964.81;4955189;28;20628;-74
2021/06/28 05:52:17;;;;;;;6.18;5.10;;;;;;;29.17;57.99;100968.78;4951978;28;20043;-74
2021/06/28 05:54:43;;;;;;;5.70;5.05;;;;;;;29.28;58.93;100969.00;4948474;28;20031;-74
2021/06/28 05:57:09;;;;;;;5.88;4.82;;;;;;;29.31;58.86;100973.59;4953780;28;20118;-74
2021/06/28 05:59:34;;;;;;;5.63;4.82;;;;;;;29.59;57.09;100968.56;4949935;28;20039;-74
2021/06/28 06:02:00;;;;;;;5.60;4.70;;;;;;;29.70;56.98;100975.06;4929582;29;20023;-74
2021/06/28 06:04:25;;;;;;;7.20;5.03;;;;;;;29.47;58.22;100966.81;4949346;28;20027;-74
2021/06/28 06:06:51;;;;;;;5.00;4.50;;;;;;;29.58;57.44;100969.81;4933925;29;20803;-73
2021/06/28 06:09:17;;;;;;;7.18;4.95;;;;;;;29.75;57.77;100963.31;4938307;29;20024;-73
2021/06/28 06:11:42;;;;;;;7.38;4.85;;;;;;;29.58;58.44;100967.78;4934394;28;20039;-73
2021/06/28 06:14:07;;;;;;;8.63;5.00;;;;;;;29.56;58.39;100973.03;4933672;29;20065;-73
2021/06/28 06:16:33;;;;;;;5.32;4.72;;;;;;;29.50;57.05;100972.16;4951312;28;20031;-72
2021/06/28 06:18:58;;;;;;;6.28;4.85;;;;;;;28.86;58.97;100968.38;4953080;28;20143;-72
2021/06/28 06:21:24;;;;;;;5.10;4.60;;;;;;;28.58;59.47;100973.31;4948189;28;20027;-72
2021/06/28 06:23:51;;;;;;;5.30;4.80;;;;;;;28.04;62.27;100979.06;4957268;28;20090;-72
2021/06/28 06:26:17;;;;;;;7.63;4.88;;;;;;;27.67;64.72;100972.81;4951278;28;20038;-72
2021/06/28 06:28:43;;;;;;;5.40;4.32;;;;;;;27.65;65.83;100973.28;4957044;28;20026;-72
2021/06/28 06:31:08;;;;;;;5.88;4.57;;;;;;;27.76;65.02;100972.78;4937545;28;20112;-72
2021/06/28 06:33:34;;;;;;;6.90;4.80;;;;;;;27.87;65.57;100967.56;4950051;28;20043;-72
2021/06/28 06:36:00;;;;;;;7.65;4.88;;;;;;;27.92;65.38;100977.22;4949959;28;20410;-72
2021/06/28 06:38:25;;;;;;;5.40;4.82;;;;;;;27.84;62.59;100978.78;4949918;28;20059;-72
2021/06/28 06:40:52;;;;;;;5.93;4.60;;;;;;;27.99;64.33;100968.63;4949413;28;20413;-72
2021/06/28 06:43:17;;;;;;;7.15;4.72;;;;;;;27.83;65.40;100978.03;4952247;28;20489;-73
2021/06/28 06:45:43;;;;;;;5.10;4.60;;;;;;;27.62;65.82;100979.75;4941647;28;20032;-72
2021/06/28 06:48:10;;;;;;;6.75;4.38;;;;;;;27.57;66.06;100974.84;4940606;28;20034;-72
2021/06/28 06:50:35;;;;;;;6.57;4.63;;;;;;;27.71;65.38;100978.97;4939577;28;20102;-72
2021/06/28 06:53:01;;;;;;;6.40;4.60;;;;;;;27.78;64.19;100973.09;4951576;28;20581;-73
2021/06/28 06:55:28;;;;;;;4.90;4.40;;;;;;;27.78;66.94;100983.44;4943378;28;20066;-73
2021/06/28 06:57:53;;;;;;;6.57;4.50;;;;;;;27.89;64.73;100983.69;4959738;28;20381;-73
2021/06/28 07:00:21;;;;;;;4.45;4.05;;;;;;;28.01;65.16;100977.25;4952228;28;20048;-73
2021/06/28 07:02:48;;;;;;;6.95;4.50;;;;;;;28.09;64.38;100981.19;4952045;28;20027;-73
2021/06/28 07:05:15;;;;;;;5.80;4.30;;;;;;;28.05;64.35;100972.31;4952581;28;20027;-73
2021/06/28 07:07:42;;;;;;;4.47;3.83;;;;;;;28.14;62.22;100973.03;4959152;28;20751;-73
2021/06/28 07:10:12;;;;;;;6.13;4.00;;;;;;;28.17;62.17;100974.09;4934885;28;20069;-73
2021/06/28 07:12:39;;;;;;;4.07;3.67;;;;;;;28.17;61.97;100968.53;4953565;28;20027;-72
2021/06/28 07:15:06;;;;;;;6.18;4.00;;;;;;;28.19;62.75;100972.41;4949709;28;20134;-73
2021/06/28 07:17:32;;;;;;;4.47;4.07;;;;;;;28.34;61.82;100978.00;4951556;28;20481;-73
2021/06/28 07:19:58;;;;;;;5.78;3.70;;;;;;;28.42;63.30;100977.22;4951772;28;20039;-73
2021/06/28 07:22:23;;;;;;;5.70;4.60;;;;;;;28.51;57.37;100985.47;4948773;28;20028;-73
2021/06/28 07:24:49;;;;;;;7.68;4.40;;;;;;;28.42;59.52;100982.75;4954901;28;20039;-73
2021/06/28 07:27:15;;;;;;;5.22;4.10;;;;;;;28.45;59.13;100981.81;4950840;28;20047;-73
2021/06/28 07:29:41;;;;;;;4.38;3.67;;;;;;;28.41;58.65;100980.47;4946140;28;20047;-73
2021/06/28 07:32:07;;;;;;;7.45;4.45;;;;;;;28.55;59.46;100985.34;4948980;28;20095;-73
2021/06/28 07:34:32;;;;;;;4.28;3.85;;;;;;;28.65;60.14;100986.81;4952310;28;20031;-73
2021/06/28 07:36:58;;;;;;;5.53;4.07;;;;;;;28.72;59.28;100991.25;4952128;28;20024;-72
2021/06/28 07:39:23;;;;;;;5.28;3.53;;;;;;;28.73;57.25;100987.25;4948646;28;20035;-72
2021/06/28 07:41:50;;;;;;;4.03;3.60;;;;;;;28.70;53.80;100988.97;4931156;28;20119;-72
2021/06/28 07:44:16;;;;;;;3.83;3.35;;;;;;;28.57;51.62;100993.19;4947980;28;20107;-72
2021/06/28 07:46:42;;;;;;;5.25;3.35;;;;;;;28.53;52.75;100987.81;4951344;28;20054;-72
2021/06/28 07:49:08;;;;;;;3.90;3.50;;;;;;;28.42;54.87;100993.84;4952445;28;20031;-72
2021/06/28 07:51:36;;;;;;;4.95;3.63;;;;;;;28.40;54.54;100979.69;4955115;28;20047;-72
2021/06/28 07:54:05;;;;;;;4.15;3.42;;;;;;;28.35;54.67;100987.88;4946148;28;20125;-72
2021/06/28 07:56:32;;;;;;;5.47;3.78;;;;;;;28.32;56.73;100994.38;4947730;28;20035;-72
2021/06/28 07:58:57;;;;;;;5.53;3.40;;;;;;;28.49;56.34;100993.50;4917292;29;20482;-72
2021/06/28 08:01:23;;;;;;;5.07;3.42;;;;;;;28.64;56.28;100985.31;4951289;28;20046;-73
2021/06/28 08:03:48;;;;;;;5.65;3.70;;;;;;;28.74;54.37;100981.25;4953721;28;20035;-72
2021/06/28 08:06:16;;;;;;;5.28;3.95;;;;;;;28.61;55.06;100979.94;4939263;28;20093;-72
2021/06/28 08:08:42;;;;;;;6.75;4.15;;;;;;;28.68;53.29;100976.81;4953122;28;20547;-72
2021/06/28 08:11:09;;;;;;;7.22;4.13;;;;;;;28.66;53.98;100971.72;4950874;28;20041;-72
2021/06/28 08:13:42;;;;;;;4.78;3.92;;;;;;;28.50;57.68;100977.63;4949151;28;20497;-73
2021/06/28 08:16:08;;;;;;;4.15;3.47;;;;;;;28.64;57.18;100976.97;4949817;28;20043;-72
2021/06/28 08:18:34;;;;;;;4.85;3.90;;;;;;;28.67;57.34;100967.72;4951026;28;20458;-72
2021/06/28 08:21:01;;;;;;;6.05;4.10;;;;;;;28.86;55.43;100971.16;4953102;28;20043;-72
2021/06/28 08:23:26;;;;;;;4.10;3.60;;;;;;;28.86;56.14;100969.13;4946707;28;20628;-72
2021/06/28 08:25:52;;;;;;;5.32;3.92;;;;;;;29.05;55.92;100961.44;4942405;28;20110;-73
2021/06/28 08:28:18;;;;;;;4.63;3.80;;;;;;;29.27;54.30;100953.56;4945311;28;20106;-72
2021/06/28 08:30:44;;;;;;;6.78;4.15;;;;;;;29.37;52.93;100955.81;4966785;28;20058;-72
2021/06/28 08:33:09;;;;;;;3.90;3.50;;;;;;;29.45;49.87;100958.97;4946867;28;20043;-72
2021/06/28 08:35:35;;;;;;;4.05;3.65;;;;;;;29.49;48.03;100956.78;4957390;28;20097;-72
2021/06/28 08:38:02;;;;;;;12.25;3.25;;;;;;;29.46;47.75;100954.97;4948370;28;20038;-72
2021/06/28 08:40:28;;;;;;;4.03;3.30;;;;;;;29.56;48.62;100955.63;4945398;28;20027;-72
2021/06/28 08:42:53;;;;;;;3.85;3.42;;;;;;;29.63;47.92;100958.03;4951660;28;20048;-72
2021/06/28 08:45:22;;;;;;;4.28;3.42;;;;;;;29.69;48.18;100965.22;4950672;28;20122;-72
2021/06/28 08:47:47;;;;;;;4.93;3.55;;;;;;;29.89;46.59;100956.22;4946270;28;20449;-72
2021/06/28 08:50:13;;;;;;;3.97;3.55;;;;;;;29.98;46.62;100947.78;4953717;28;20071;-72
2021/06/28 08:52:40;;;;;;;3.70;3.40;;;;;;;30.04;47.28;100941.06;4929060;28;20042;-72
2021/06/28 08:55:07;;;;;;;4.55;3.63;;;;;;;30.09;47.58;100947.97;4953397;28;20035;-72
2021/06/28 08:57:33;;;;;;;7.32;3.88;;;;;;;29.82;47.70;100946.28;4950546;28;20038;-72
2021/06/28 08:59:58;;;;;;;6.60;3.17;;;;;;;29.76;47.34;100942.63;4933409;28;20043;-72
2021/06/28 09:02:24;;;;;;;4.78;3.10;;;;;;;29.73;48.72;100942.81;4914552;28;20082;-72
2021/06/28 09:05:02;;;;;;;6.50;3.72;;;;;;;29.82;46.01;100946.28;4942583;28;20019;-72
2021/06/28 09:07:28;;;;;;;5.15;3.38;;;;;;;29.91;48.63;100942.59;4945801;28;20058;-72
2021/06/28 09:09:53;;;;;;;8.32;3.47;;;;;;;30.10;46.86;100938.38;4953242;28;20077;-72
2021/06/28 09:12:20;;;;;;;3.75;3.10;;;;;;;30.24;46.91;100938.34;4934820;28;20046;-72
2021/06/28 09:14:54;;;;;;;3.50;3.20;;;;;;;30.36;47.67;100932.97;4929954;29;20461;-72
2021/06/28 09:17:37;;;;;;;8.15;3.30;;;;;;;30.55;47.57;100934.22;4951676;28;20087;-72
2021/06/28 09:20:18;;;;;;;3.30;3.00;;;;;;;30.74;48.46;100930.69;4940069;28;20498;-72
2021/06/28 09:22:45;;;;;;;3.60;3.15;;;;;;;30.94;46.21;100930.72;4935547;28;20773;-72
2021/06/28 09:25:35;;;;;;;3.40;3.10;;;;;;;31.02;46.10;100922.72;4933434;28;20041;-72
2021/06/28 09:28:01;;;;;;;3.53;3.22;;;;;;;31.25;47.30;100921.69;4951540;28;20509;-71
2021/06/28 09:30:27;;;;;;;4.15;3.42;;;;;;;31.41;47.50;100915.56;4951095;28;20161;-72
2021/06/28 09:32:55;;;;;;;4.72;3.20;;;;;;;31.55;46.08;100920.22;4932089;29;20036;-73
2021/06/28 09:35:39;;;;;;;4.85;3.22;;;;;;;31.57;44.49;100925.31;4937591;28;20039;-71
2021/06/28 09:38:06;;;;;;;4.05;3.25;;;;;;;31.51;45.81;100925.28;4938338;28;20431;-72
2021/06/28 09:40:32;;;;;;;5.18;3.42;;;;;;;31.65;47.13;100923.63;4948755;28;20503;-72
2021/06/28 09:42:59;;;;;;;6.28;3.30;;;;;;;31.74;45.18;100926.22;4947523;28;20054;-72
2021/06/28 09:45:24;;;;;;;3.67;3.22;;;;;;;31.65;44.49;100927.16;4932173;28;20043;-71
2021/06/28 09:47:50;;;;;;;5.40;3.38;;;;;;;31.57;45.97;100930.91;4949534;28;20019;-72
2021/06/28 09:50:23;;;;;;;5.93;3.40;;;;;;;31.66;45.62;100919.56;4945735;28;20043;-72
2021/06/28 09:52:54;;;;;;;3.97;3.20;;;;;;;31.63;47.16;100929.66;4924076;28;20037;-72
2021/06/28 09:55:36;;;;;;;3.67;2.97;;;;;;;31.73;45.17;100931.03;4917332;28;20075;-72
2021/06/28 09:58:04;;;;;;;6.43;3.90;;;;;;;31.93;44.65;100922.63;4933453;29;20044;-72
2021/06/28 10:00:35;;;;;;;3.72;3.00;;;;;;;31.85;44.66;100924.28;4933067;28;20529;-72
2021/06/28 10:03:03;;;;;;;7.20;3.00;;;;;;;32.04;46.04;100915.59;4932950;28;20035;-73
2021/06/28 10:05:34;;;;;;;3.90;3.50;;;;;;;32.16;45.63;100922.75;4943683;28;20122;-71
2021/06/28 10:08:00;;;;;;;7.32;3.30;;;;;;;32.30;45.79;100910.66;4949179;28;20090;-71
2021/06/28 10:10:28;;;;;;;3.72;3.42;;;;;;;32.32;45.24;100922.88;4949285;28;20035;-72
2021/06/28 10:12:53;;;;;;;4.65;3.25;;;;;;;32.57;44.00;100918.44;4944837;28;20102;-72
2021/06/28 10:15:23;;;;;;;4.47;3.53;;;;;;;32.56;44.28;100916.94;4950760;28;20039;-72
2021/06/28 10:17:49;;;;;;;3.92;3.05;;;;;;;32.68;42.13;100924.84;4948797;28;20398;-72
2021/06/28 10:20:18;;;;;;;4.72;3.40;;;;;;;32.72;41.93;100919.78;4948202;28;20123;-70
2021/06/28 10:22:44;;;;;;;4.13;3.20;;;;;;;32.54;42.38;100913.88;4947535;28;20094;-72
2021/06/28 10:25:13;;;;;;;4.97;3.33;;;;;;;32.58;44.27;100908.81;4947080;28;20125;-72
2021/06/28 10:27:39;;;;;;;6.45;3.58;;;;;;;32.69;42.80;100909.63;4946696;28;20031;-72
2021/06/28 10:30:08;;;;;;;4.07;3.10;;;;;;;32.65;42.10;100902.75;4937799;28;20121;-72
2021/06/28 10:32:35;;;;;;;4.23;3.40;;;;;;;32.69;43.60;100908.88;3892868;28;30180755;-72
2021/06/28 10:35:02;;;;;;;5.18;3.17;;;;;;;32.74;42.78;100908.13;4860465;29;20048;-71
2021/06/28 10:37:33;;;;;;;3.22;2.90;;;;;;;32.95;42.40;100903.88;4950203;28;20035;-72
2021/06/28 10:40:04;;;;;;;2.90;2.60;;;;;;;33.10;41.38;100893.25;4949815;28;20039;-73
2021/06/28 10:42:33;;;;;;;3.22;2.45;;;;;;;33.06;41.88;100911.56;4941239;28;20063;-72
2021/06/28 10:45:00;;;;;;;3.38;3.08;;;;;;;33.10;41.30;100904.44;4947902;28;20039;-72
2021/06/28 10:47:28;;;;;;;3.97;2.90;;;;;;;33.19;40.46;100901.44;4936189;28;20042;-71
2021/06/28 10:49:54;;;;;;;3.70;2.70;;;;;;;33.24;42.04;100897.88;4948989;28;20038;-72
2021/06/28 10:52:38;;;;;;;3.33;3.03;;;;;;;33.07;40.32;100913.06;4947968;28;20058;-72
2021/06/28 10:55:21;;;;;;;4.05;3.00;;;;;;;33.28;39.17;100906.00;4949181;28;20031;-72
2021/06/28 10:57:55;;;;;;;2.90;2.70;;;;;;;33.24;41.00;100902.69;4914555;28;20541;-72
2021/06/28 11:00:54;;;;;;;4.82;2.90;;;;;;;33.33;40.33;100900.44;4945391;28;20058;-72
2021/06/28 11:03:23;;;;;;;3.88;2.25;;;;;;;33.66;40.78;100903.25;4916760;29;20458;-71
2021/06/28 11:06:13;;;;;;;3.70;2.30;;;;;;;33.68;40.03;100897.91;4944415;28;20042;-72
2021/06/28 11:09:05;;;;;;;5.47;2.50;;;;;;;33.71;41.51;100898.94;4948802;28;20037;-72
2021/06/28 11:11:43;;;;;;;3.70;2.83;;;;;;;33.74;39.52;100889.53;4924529;28;20110;-72
2021/06/28 11:14:18;;;;;;;3.33;2.45;;;;;;;33.76;39.11;100897.44;4927508;28;20390;-72
2021/06/28 11:17:06;;;;;;;2.75;2.55;;;;;;;33.84;39.64;100895.63;4926958;28;20035;-73
2021/06/28 11:22:30;;;;;;;4.13;2.55;;;;;;;34.09;39.20;100886.97;4939059;28;20050;-72
2021/06/28 11:25:21;;;;;;;2.50;2.28;;;;;;;34.07;38.38;100891.56;4944384;28;20031;-72
2021/06/28 11:27:58;;;;;;;2.78;2.58;;;;;;;34.15;37.38;100884.91;4949692;28;20027;-72